Taurus — WDB5562 — position and weather

sailwx.info

Track history (hours):
 
Tides and Currents Weather Stations Pressure Air Temp Water Temp Dewpoint Dewpoint Depression Visibility Wind Speed Wind Dir Waves Ship Positions

Taurus

Owner: Kirby Offshore Marine, LLC, Staten Island, NY. More information available from US FCC via Universal Licensing System and Coast Guard Vessel Documentation Center.

Last reported at 2014-Nov-01 05:33 UTC. Time now 2014-Nov-01 05:38 UTC.
Position N 40°39' W 074°10'.

Length 24 m.

Type: Tug. MMSI: 366910990.

Date/timePositionNaut miles runAvg speedWind from/ knotsBaromVisibWave heightAir tempDewpointWater temp
2014-Nov-01 05:33N 40°39' W 074°10'0 0.0
2014-Nov-01 04:33N 40°39' W 074°10'3 2.2
2014-Nov-01 03:15N 40°36' W 074°12'3 5.1
2014-Nov-01 02:34N 40°39' W 074°09'2 1.9
2014-Nov-01 01:34N 40°39' W 074°06'1 0.6
2014-Nov-01 00:34N 40°39' W 074°07'0 0.0
2014-Oct-31 23:34N 40°39' W 074°07'0 0.0
2014-Oct-31 22:34N 40°39' W 074°07'0 0.0
2014-Oct-31 21:33N 40°39' W 074°07'0 0.0
2014-Oct-31 20:33N 40°39' W 074°07'0 0.0
2014-Oct-31 19:34N 40°39' W 074°07'0 0.0
2014-Oct-31 18:33N 40°39' W 074°07'0 0.0
2014-Oct-31 17:34N 40°39' W 074°07'0 0.0
2014-Oct-31 16:34N 40°39' W 074°07'0 0.0
2014-Oct-31 15:34N 40°39' W 074°07'0 0.0
2014-Oct-31 14:33N 40°39' W 074°07'0 0.0
2014-Oct-31 13:34N 40°39' W 074°07'0 0.0
2014-Oct-31 12:33N 40°39' W 074°07'0 0.0
2014-Oct-31 11:34N 40°39' W 074°07'0 0.0
2014-Oct-31 10:34N 40°39' W 074°07'0 0.0
2014-Oct-31 09:34N 40°39' W 074°07'0 0.0
2014-Oct-31 08:33N 40°39' W 074°07'0 0.0
2014-Oct-31 07:34N 40°39' W 074°07'0 0.0
2014-Oct-31 06:34N 40°39' W 074°07'0 0.0
2014-Oct-31 05:33N 40°39' W 074°07'0 0.0
2014-Oct-31 04:33N 40°39' W 074°07'0 0.0
2014-Oct-31 03:34N 40°39' W 074°07'2 2.2
2014-Oct-31 02:34N 40°39' W 074°10'2 1.9
2014-Oct-31 01:30N 40°38' W 074°12'2 1.8
2014-Oct-31 00:24N 40°39' W 074°10'0 0.0
2014-Oct-30 23:29N 40°39' W 074°10'2 2.4
2014-Oct-30 22:34N 40°39' W 074°07'8 8.3
2014-Oct-30 21:33N 40°44' W 073°58'9 8.6
2014-Oct-30 20:32N 40°48' W 073°48'18 8.4
2014-Oct-30 18:27N 40°58' W 073°29'8 9.2
2014-Oct-30 17:33N 41°00' W 073°19'9 9.0
2014-Oct-30 16:30N 40°59' W 073°06'2 0.4
2014-Oct-30 10:22N 40°57' W 073°04'0 0.0
2014-Oct-30 09:31N 40°57' W 073°04'0 0.0
2014-Oct-30 08:31N 40°57' W 073°04'0 0.0
2014-Oct-30 07:33N 40°57' W 073°04'4 4.2
2014-Oct-30 06:33N 40°59' W 073°09'7 6.9
2014-Oct-30 05:32N 40°60' W 073°18'7 6.7
2014-Oct-30 04:32N 40°59' W 073°27'7 7.4
2014-Oct-30 03:31N 40°56' W 073°36'8 7.7
2014-Oct-30 02:32N 40°52' W 073°45'7 6.8
2014-Oct-30 01:30N 40°48' W 073°52'6 5.9
2014-Oct-30 00:34N 40°44' W 073°58'5 5.4
2014-Oct-29 23:34N 40°40' W 074°02'6 5.8
2014-Oct-29 22:34N 40°39' W 074°10'3 2.6
2014-Oct-29 21:23N 40°36' W 074°12'0 0.1
2014-Oct-29 20:22N 40°36' W 074°12'3 3.3
2014-Oct-29 19:33N 40°38' W 074°10'0 0.0
2014-Oct-29 18:33N 40°38' W 074°10'0 0.0
2014-Oct-29 17:33N 40°38' W 074°10'0 0.0
2014-Oct-29 16:33N 40°38' W 074°10'0 0.0
2014-Oct-29 15:33N 40°38' W 074°10'3 2.8
2014-Oct-29 14:33N 40°36' W 074°12'5 4.6
2014-Oct-29 13:33N 40°39' W 074°07'1 1.1
2014-Oct-29 12:34N 40°38' W 074°09'1 1.1
2014-Oct-29 11:33N 40°38' W 074°10'0 0.0
2014-Oct-29 10:34N 40°38' W 074°10'0 0.0
2014-Oct-29 09:33N 40°38' W 074°10'0 0.0
2014-Oct-29 08:34N 40°38' W 074°10'0 0.0
2014-Oct-29 07:34N 40°38' W 074°10'2 1.9
2014-Oct-29 06:33N 40°38' W 074°12'2 1.0
2014-Oct-29 04:34N 40°39' W 074°10'0 0.0
2014-Oct-29 03:33N 40°39' W 074°10'4 4.4
2014-Oct-29 02:34N 40°39' W 074°04'4 4.4
2014-Oct-29 01:34N 40°38' W 074°10'0 0.0
2014-Oct-29 00:34N 40°38' W 074°10'0 0.1
2014-Oct-28 23:33N 40°39' W 074°10'0 0.0
2014-Oct-28 22:33N 40°39' W 074°10'0 0.1
2014-Oct-28 21:34N 40°39' W 074°10'0 0.0
2014-Oct-28 20:34N 40°39' W 074°10'2 1.6
2014-Oct-28 19:33N 40°39' W 074°08'5 5.5
2014-Oct-28 18:34N 40°41' W 074°01'8 7.8
2014-Oct-28 17:32N 40°47' W 073°55'7 6.1
2014-Oct-28 16:22N 40°50' W 073°46'5 1.4
2014-Oct-28 12:26N 40°50' W 073°39'0 0.0
2014-Oct-28 10:33N 40°50' W 073°39'0 0.0
2014-Oct-28 09:33N 40°50' W 073°39'0 0.0
2014-Oct-28 08:33N 40°50' W 073°39'0 0.0
2014-Oct-28 07:29N 40°50' W 073°39'0 0.0
2014-Oct-28 06:32N 40°50' W 073°39'0 0.0
2014-Oct-28 05:30N 40°50' W 073°39'2 2.5
2014-Oct-28 04:32N 40°52' W 073°40'0 0.0
2014-Oct-28 03:34N 40°52' W 073°40'1 0.2
2014-Oct-28 01:09N 40°52' W 073°41'4 6.3
2014-Oct-28 00:28N 40°51' W 073°46'6 6.5
2014-Oct-27 23:29N 40°48' W 073°54'6 6.0
2014-Oct-27 22:33N 40°44' W 073°58'5 5.4
2014-Oct-27 21:33N 40°40' W 074°03'5 4.5
2014-Oct-27 20:34N 40°39' W 074°09'1 1.0
2014-Oct-27 19:34N 40°39' W 074°10'0 0.0
2014-Oct-27 18:31N 40°39' W 074°10'0 0.0
2014-Oct-27 17:24N 40°39' W 074°10'0 0.0
2014-Oct-27 16:34N 40°39' W 074°10'1 0.3
2014-Oct-27 14:33N 40°39' W 074°11'1 0.7
2014-Oct-27 13:34N 40°38' W 074°10'0 0.0
2014-Oct-27 12:33N 40°38' W 074°10'0 0.0
2014-Oct-27 11:34N 40°38' W 074°10'0 0.0
2014-Oct-27 10:33N 40°39' W 074°10'0 0.0
2014-Oct-27 09:34N 40°39' W 074°10'0 0.0
2014-Oct-27 08:34N 40°39' W 074°10'0 0.0
2014-Oct-27 07:33N 40°39' W 074°10'0 0.0
2014-Oct-27 06:34N 40°39' W 074°10'0 0.0
2014-Oct-27 05:34N 40°39' W 074°10'0 0.0
2014-Oct-27 04:32N 40°39' W 074°10'0 0.0
2014-Oct-27 03:33N 40°39' W 074°10'0 0.0
2014-Oct-27 02:33N 40°39' W 074°10'0 0.0
2014-Oct-27 01:32N 40°39' W 074°10'0 0.0
2014-Oct-27 00:33N 40°39' W 074°10'0 0.0
2014-Oct-26 23:18N 40°39' W 074°10'0 0.0
2014-Oct-26 22:33N 40°39' W 074°10'0 0.0
2014-Oct-26 21:34N 40°39' W 074°10'0 0.0
2014-Oct-26 20:34N 40°39' W 074°10'0 0.0
2014-Oct-26 19:31N 40°39' W 074°10'1 0.5
2014-Oct-26 18:34N 40°38' W 074°09'6 6.0
2014-Oct-26 17:33N 40°41' W 074°02'10 9.7
2014-Oct-26 16:33N 40°48' W 073°54'19 7.8
2014-Oct-26 14:04N 40°59' W 073°33'4 8.7
2014-Oct-26 13:33N 41°01' W 073°28'9 8.7
2014-Oct-26 12:33N 41°05' W 073°17'9 8.4
2014-Oct-26 11:32N 41°07' W 073°06'7 7.6
2014-Oct-26 10:33N 41°12' W 072°58'7 6.9
2014-Oct-26 09:33N 41°18' W 072°54'0 0.0
2014-Oct-26 08:32N 41°18' W 072°54'0 0.0
2014-Oct-26 07:33N 41°18' W 072°54'0 0.0
2014-Oct-26 05:32N 41°18' W 072°54'0 0.0
2014-Oct-26 04:29N 41°18' W 072°54'0 0.1
2014-Oct-25 23:23N 41°18' W 072°54'0 0.0
2014-Oct-25 22:26N 41°18' W 072°54'0 0.0
2014-Oct-25 21:33N 41°18' W 072°54'3 3.4
2014-Oct-25 20:33N 41°14' W 072°55'7 7.3
2014-Oct-25 19:33N 41°09' W 073°02'8 8.1
2014-Oct-25 18:33N 41°05' W 073°11'8 7.6
2014-Oct-25 17:33N 41°02' W 073°20'7 7.2
2014-Oct-25 16:33N 40°59' W 073°29'7 7.1
2014-Oct-25 15:33N 40°56' W 073°37'7 6.8
2014-Oct-25 14:32N 40°52' W 073°45'6 6.2
2014-Oct-25 13:33N 40°48' W 073°51'7 7.2
2014-Oct-25 12:34N 40°43' W 073°58'7 7.3
2014-Oct-25 11:33N 40°39' W 074°06'4 4.4
2014-Oct-25 10:33N 40°38' W 074°12'6 5.4
2014-Oct-25 09:33N 40°33' W 074°15'3 3.0
2014-Oct-25 08:33N 40°36' W 074°12'7 7.4
2014-Oct-25 07:33N 40°40' W 074°04'7 7.2
2014-Oct-25 06:33N 40°44' W 073°57'1 1.1
2014-Oct-25 05:33N 40°44' W 073°58'6 5.8
2014-Oct-25 04:33N 40°39' W 074°03'7 7.4
2014-Oct-25 03:33N 40°37' W 074°12'4 1.2
2014-Oct-25 00:16N 40°34' W 074°14'0 0.0
2014-Oct-24 14:27N 40°34' W 074°14'0 0.0
2014-Oct-24 13:32N 40°34' W 074°14'6 2.0
2014-Oct-24 10:34N 40°39' W 074°10'0 0.3
2014-Oct-24 09:09N 40°38' W 074°10'0 0.0
2014-Oct-24 08:15N 40°38' W 074°10'0 0.0
2014-Oct-24 07:09N 40°38' W 074°10'0 0.0
2014-Oct-24 06:30N 40°38' W 074°10'0 0.0
2014-Oct-24 05:33N 40°38' W 074°10'0 0.0
2014-Oct-24 04:33N 40°38' W 074°10'0 0.0
2014-Oct-24 03:32N 40°38' W 074°10'0 0.0
2014-Oct-24 01:33N 40°38' W 074°10'0 0.1
2014-Oct-24 00:33N 40°39' W 074°10'5 4.7
2014-Oct-23 23:34N 40°40' W 074°04'5 5.1
2014-Oct-23 22:33N 40°43' W 073°58'3 2.8
2014-Oct-23 21:34N 40°41' W 074°01'7 6.1
2014-Oct-23 20:25N 40°39' W 074°10'0 0.1
2014-Oct-23 19:33N 40°39' W 074°10'0 0.0
2014-Oct-23 18:34N 40°39' W 074°10'0 0.0
2014-Oct-23 17:33N 40°39' W 074°10'0 0.0
2014-Oct-23 16:33N 40°39' W 074°10'0 0.0
2014-Oct-23 09:24N 40°38' W 074°10'0 0.0
2014-Oct-23 04:30N 40°38' W 074°10'0 0.0
2014-Oct-23 03:09N 40°38' W 074°10'0 0.0
2014-Oct-23 02:24N 40°38' W 074°10'1 0.8
2014-Oct-23 01:30N 40°38' W 074°09'2 2.0
2014-Oct-23 00:33N 40°39' W 074°07'0 0.0
2014-Oct-22 23:34N 40°39' W 074°07'2 1.7
2014-Oct-22 22:34N 40°40' W 074°09'1 1.5
2014-Oct-22 21:33N 40°39' W 074°10'0 0.0
2014-Oct-22 20:33N 40°39' W 074°10'0 0.0
2014-Oct-22 19:34N 40°39' W 074°10'0 0.0
2014-Oct-22 18:34N 40°39' W 074°10'2 2.3
2014-Oct-22 17:33N 40°37' W 074°12'1 0.7
2014-Oct-22 16:07N 40°36' W 074°12'0 0.0
2014-Oct-22 14:24N 40°36' W 074°12'2 2.0
2014-Oct-22 13:31N 40°38' W 074°12'2 2.0
2014-Oct-22 12:33N 40°39' W 074°10'0 0.0
2014-Oct-22 11:33N 40°39' W 074°10'0 0.0
2014-Oct-22 10:33N 40°39' W 074°10'0 0.0
2014-Oct-22 09:34N 40°39' W 074°10'0 0.0
2014-Oct-22 08:33N 40°39' W 074°10'0 0.0
2014-Oct-22 07:34N 40°39' W 074°10'3 3.2
2014-Oct-22 06:33N 40°39' W 074°06'8 7.9
2014-Oct-22 05:33N 40°44' W 073°58'  
Track history (hours):
 
Tides and Currents Weather Stations Pressure Air Temp Water Temp Dewpoint Dewpoint Depression Visibility Wind Speed Wind Dir Waves Ship Positions

Taurus

Owner: Kirby Offshore Marine, LLC, Staten Island, NY. More information available from US FCC via Universal Licensing System and Coast Guard Vessel Documentation Center.

Last reported at 2014-Nov-01 05:33 UTC. Time now 2014-Nov-01 05:38 UTC.
Position N 40°39' W 074°10'.

Length 24 m.

Type: Tug. MMSI: 366910990.

Date/timePositionNaut miles runAvg speedWind from/ knotsBaromVisibWave heightAir tempDewpointWater temp
2014-Nov-01 05:33N 40°39' W 074°10'0 0.0
2014-Nov-01 04:33N 40°39' W 074°10'3 2.2
2014-Nov-01 03:15N 40°36' W 074°12'3 5.1
2014-Nov-01 02:34N 40°39' W 074°09'2 1.9
2014-Nov-01 01:34N 40°39' W 074°06'1 0.6
2014-Nov-01 00:34N 40°39' W 074°07'0 0.0
2014-Oct-31 23:34N 40°39' W 074°07'0 0.0
2014-Oct-31 22:34N 40°39' W 074°07'0 0.0
2014-Oct-31 21:33N 40°39' W 074°07'0 0.0
2014-Oct-31 20:33N 40°39' W 074°07'0 0.0
2014-Oct-31 19:34N 40°39' W 074°07'0 0.0
2014-Oct-31 18:33N 40°39' W 074°07'0 0.0
2014-Oct-31 17:34N 40°39' W 074°07'0 0.0
2014-Oct-31 16:34N 40°39' W 074°07'0 0.0
2014-Oct-31 15:34N 40°39' W 074°07'0 0.0
2014-Oct-31 14:33N 40°39' W 074°07'0 0.0
2014-Oct-31 13:34N 40°39' W 074°07'0 0.0
2014-Oct-31 12:33N 40°39' W 074°07'0 0.0
2014-Oct-31 11:34N 40°39' W 074°07'0 0.0
2014-Oct-31 10:34N 40°39' W 074°07'0 0.0
2014-Oct-31 09:34N 40°39' W 074°07'0 0.0
2014-Oct-31 08:33N 40°39' W 074°07'0 0.0
2014-Oct-31 07:34N 40°39' W 074°07'0 0.0
2014-Oct-31 06:34N 40°39' W 074°07'0 0.0
2014-Oct-31 05:33N 40°39' W 074°07'0 0.0
2014-Oct-31 04:33N 40°39' W 074°07'0 0.0
2014-Oct-31 03:34N 40°39' W 074°07'2 2.2
2014-Oct-31 02:34N 40°39' W 074°10'2 1.9
2014-Oct-31 01:30N 40°38' W 074°12'2 1.8
2014-Oct-31 00:24N 40°39' W 074°10'0 0.0
2014-Oct-30 23:29N 40°39' W 074°10'2 2.4
2014-Oct-30 22:34N 40°39' W 074°07'8 8.3
2014-Oct-30 21:33N 40°44' W 073°58'9 8.6
2014-Oct-30 20:32N 40°48' W 073°48'18 8.4
2014-Oct-30 18:27N 40°58' W 073°29'8 9.2
2014-Oct-30 17:33N 41°00' W 073°19'9 9.0
2014-Oct-30 16:30N 40°59' W 073°06'2 0.4
2014-Oct-30 10:22N 40°57' W 073°04'0 0.0
2014-Oct-30 09:31N 40°57' W 073°04'0 0.0
2014-Oct-30 08:31N 40°57' W 073°04'0 0.0
2014-Oct-30 07:33N 40°57' W 073°04'4 4.2
2014-Oct-30 06:33N 40°59' W 073°09'7 6.9
2014-Oct-30 05:32N 40°60' W 073°18'7 6.7
2014-Oct-30 04:32N 40°59' W 073°27'7 7.4
2014-Oct-30 03:31N 40°56' W 073°36'8 7.7
2014-Oct-30 02:32N 40°52' W 073°45'7 6.8
2014-Oct-30 01:30N 40°48' W 073°52'6 5.9
2014-Oct-30 00:34N 40°44' W 073°58'5 5.4
2014-Oct-29 23:34N 40°40' W 074°02'6 5.8
2014-Oct-29 22:34N 40°39' W 074°10'3 2.6
2014-Oct-29 21:23N 40°36' W 074°12'0 0.1
2014-Oct-29 20:22N 40°36' W 074°12'3 3.3
2014-Oct-29 19:33N 40°38' W 074°10'0 0.0
2014-Oct-29 18:33N 40°38' W 074°10'0 0.0
2014-Oct-29 17:33N 40°38' W 074°10'0 0.0
2014-Oct-29 16:33N 40°38' W 074°10'0 0.0
2014-Oct-29 15:33N 40°38' W 074°10'3 2.8
2014-Oct-29 14:33N 40°36' W 074°12'5 4.6
2014-Oct-29 13:33N 40°39' W 074°07'1 1.1
2014-Oct-29 12:34N 40°38' W 074°09'1 1.1
2014-Oct-29 11:33N 40°38' W 074°10'0 0.0
2014-Oct-29 10:34N 40°38' W 074°10'0 0.0
2014-Oct-29 09:33N 40°38' W 074°10'0 0.0
2014-Oct-29 08:34N 40°38' W 074°10'0 0.0
2014-Oct-29 07:34N 40°38' W 074°10'2 1.9
2014-Oct-29 06:33N 40°38' W 074°12'2 1.0
2014-Oct-29 04:34N 40°39' W 074°10'0 0.0
2014-Oct-29 03:33N 40°39' W 074°10'4 4.4
2014-Oct-29 02:34N 40°39' W 074°04'4 4.4
2014-Oct-29 01:34N 40°38' W 074°10'0 0.0
2014-Oct-29 00:34N 40°38' W 074°10'0 0.1
2014-Oct-28 23:33N 40°39' W 074°10'0 0.0
2014-Oct-28 22:33N 40°39' W 074°10'0 0.1
2014-Oct-28 21:34N 40°39' W 074°10'0 0.0
2014-Oct-28 20:34N 40°39' W 074°10'2 1.6
2014-Oct-28 19:33N 40°39' W 074°08'5 5.5
2014-Oct-28 18:34N 40°41' W 074°01'8 7.8
2014-Oct-28 17:32N 40°47' W 073°55'7 6.1
2014-Oct-28 16:22N 40°50' W 073°46'5 1.4
2014-Oct-28 12:26N 40°50' W 073°39'0 0.0
2014-Oct-28 10:33N 40°50' W 073°39'0 0.0
2014-Oct-28 09:33N 40°50' W 073°39'0 0.0
2014-Oct-28 08:33N 40°50' W 073°39'0 0.0
2014-Oct-28 07:29N 40°50' W 073°39'0 0.0
2014-Oct-28 06:32N 40°50' W 073°39'0 0.0
2014-Oct-28 05:30N 40°50' W 073°39'2 2.5
2014-Oct-28 04:32N 40°52' W 073°40'0 0.0
2014-Oct-28 03:34N 40°52' W 073°40'1 0.2
2014-Oct-28 01:09N 40°52' W 073°41'4 6.3
2014-Oct-28 00:28N 40°51' W 073°46'6 6.5
2014-Oct-27 23:29N 40°48' W 073°54'6 6.0
2014-Oct-27 22:33N 40°44' W 073°58'5 5.4
2014-Oct-27 21:33N 40°40' W 074°03'5 4.5
2014-Oct-27 20:34N 40°39' W 074°09'1 1.0
2014-Oct-27 19:34N 40°39' W 074°10'0 0.0
2014-Oct-27 18:31N 40°39' W 074°10'0 0.0
2014-Oct-27 17:24N 40°39' W 074°10'0 0.0
2014-Oct-27 16:34N 40°39' W 074°10'1 0.3
2014-Oct-27 14:33N 40°39' W 074°11'1 0.7
2014-Oct-27 13:34N 40°38' W 074°10'0 0.0
2014-Oct-27 12:33N 40°38' W 074°10'0 0.0
2014-Oct-27 11:34N 40°38' W 074°10'0 0.0
2014-Oct-27 10:33N 40°39' W 074°10'0 0.0
2014-Oct-27 09:34N 40°39' W 074°10'0 0.0
2014-Oct-27 08:34N 40°39' W 074°10'0 0.0
2014-Oct-27 07:33N 40°39' W 074°10'0 0.0
2014-Oct-27 06:34N 40°39' W 074°10'0 0.0
2014-Oct-27 05:34N 40°39' W 074°10'0 0.0
2014-Oct-27 04:32N 40°39' W 074°10'0 0.0
2014-Oct-27 03:33N 40°39' W 074°10'0 0.0
2014-Oct-27 02:33N 40°39' W 074°10'0 0.0
2014-Oct-27 01:32N 40°39' W 074°10'0 0.0
2014-Oct-27 00:33N 40°39' W 074°10'0 0.0
2014-Oct-26 23:18N 40°39' W 074°10'0 0.0
2014-Oct-26 22:33N 40°39' W 074°10'0 0.0
2014-Oct-26 21:34N 40°39' W 074°10'0 0.0
2014-Oct-26 20:34N 40°39' W 074°10'0 0.0
2014-Oct-26 19:31N 40°39' W 074°10'1 0.5
2014-Oct-26 18:34N 40°38' W 074°09'6 6.0
2014-Oct-26 17:33N 40°41' W 074°02'10 9.7
2014-Oct-26 16:33N 40°48' W 073°54'19 7.8
2014-Oct-26 14:04N 40°59' W 073°33'4 8.7
2014-Oct-26 13:33N 41°01' W 073°28'9 8.7
2014-Oct-26 12:33N 41°05' W 073°17'9 8.4
2014-Oct-26 11:32N 41°07' W 073°06'7 7.6
2014-Oct-26 10:33N 41°12' W 072°58'7 6.9
2014-Oct-26 09:33N 41°18' W 072°54'0 0.0
2014-Oct-26 08:32N 41°18' W 072°54'0 0.0
2014-Oct-26 07:33N 41°18' W 072°54'0 0.0
2014-Oct-26 05:32N 41°18' W 072°54'0 0.0
2014-Oct-26 04:29N 41°18' W 072°54'0 0.1
2014-Oct-25 23:23N 41°18' W 072°54'0 0.0
2014-Oct-25 22:26N 41°18' W 072°54'0 0.0
2014-Oct-25 21:33N 41°18' W 072°54'3 3.4
2014-Oct-25 20:33N 41°14' W 072°55'7 7.3
2014-Oct-25 19:33N 41°09' W 073°02'8 8.1
2014-Oct-25 18:33N 41°05' W 073°11'8 7.6
2014-Oct-25 17:33N 41°02' W 073°20'7 7.2
2014-Oct-25 16:33N 40°59' W 073°29'7 7.1
2014-Oct-25 15:33N 40°56' W 073°37'7 6.8
2014-Oct-25 14:32N 40°52' W 073°45'6 6.2
2014-Oct-25 13:33N 40°48' W 073°51'7 7.2
2014-Oct-25 12:34N 40°43' W 073°58'7 7.3
2014-Oct-25 11:33N 40°39' W 074°06'4 4.4
2014-Oct-25 10:33N 40°38' W 074°12'6 5.4
2014-Oct-25 09:33N 40°33' W 074°15'3 3.0
2014-Oct-25 08:33N 40°36' W 074°12'7 7.4
2014-Oct-25 07:33N 40°40' W 074°04'7 7.2
2014-Oct-25 06:33N 40°44' W 073°57'1 1.1
2014-Oct-25 05:33N 40°44' W 073°58'6 5.8
2014-Oct-25 04:33N 40°39' W 074°03'7 7.4
2014-Oct-25 03:33N 40°37' W 074°12'4 1.2
2014-Oct-25 00:16N 40°34' W 074°14'0 0.0
2014-Oct-24 14:27N 40°34' W 074°14'0 0.0
2014-Oct-24 13:32N 40°34' W 074°14'6 2.0
2014-Oct-24 10:34N 40°39' W 074°10'0 0.3
2014-Oct-24 09:09N 40°38' W 074°10'0 0.0
2014-Oct-24 08:15N 40°38' W 074°10'0 0.0
2014-Oct-24 07:09N 40°38' W 074°10'0 0.0
2014-Oct-24 06:30N 40°38' W 074°10'0 0.0
2014-Oct-24 05:33N 40°38' W 074°10'0 0.0
2014-Oct-24 04:33N 40°38' W 074°10'0 0.0
2014-Oct-24 03:32N 40°38' W 074°10'0 0.0
2014-Oct-24 01:33N 40°38' W 074°10'0 0.1
2014-Oct-24 00:33N 40°39' W 074°10'5 4.7
2014-Oct-23 23:34N 40°40' W 074°04'5 5.1
2014-Oct-23 22:33N 40°43' W 073°58'3 2.8
2014-Oct-23 21:34N 40°41' W 074°01'7 6.1
2014-Oct-23 20:25N 40°39' W 074°10'0 0.1
2014-Oct-23 19:33N 40°39' W 074°10'0 0.0
2014-Oct-23 18:34N 40°39' W 074°10'0 0.0
2014-Oct-23 17:33N 40°39' W 074°10'0 0.0
2014-Oct-23 16:33N 40°39' W 074°10'0 0.0
2014-Oct-23 09:24N 40°38' W 074°10'0 0.0
2014-Oct-23 04:30N 40°38' W 074°10'0 0.0
2014-Oct-23 03:09N 40°38' W 074°10'0 0.0
2014-Oct-23 02:24N 40°38' W 074°10'1 0.8
2014-Oct-23 01:30N 40°38' W 074°09'2 2.0
2014-Oct-23 00:33N 40°39' W 074°07'0 0.0
2014-Oct-22 23:34N 40°39' W 074°07'2 1.7
2014-Oct-22 22:34N 40°40' W 074°09'1 1.5
2014-Oct-22 21:33N 40°39' W 074°10'0 0.0
2014-Oct-22 20:33N 40°39' W 074°10'0 0.0
2014-Oct-22 19:34N 40°39' W 074°10'0 0.0
2014-Oct-22 18:34N 40°39' W 074°10'2 2.3
2014-Oct-22 17:33N 40°37' W 074°12'1 0.7
2014-Oct-22 16:07N 40°36' W 074°12'0 0.0
2014-Oct-22 14:24N 40°36' W 074°12'2 2.0
2014-Oct-22 13:31N 40°38' W 074°12'2 2.0
2014-Oct-22 12:33N 40°39' W 074°10'0 0.0
2014-Oct-22 11:33N 40°39' W 074°10'0 0.0
2014-Oct-22 10:33N 40°39' W 074°10'0 0.0
2014-Oct-22 09:34N 40°39' W 074°10'0 0.0
2014-Oct-22 08:33N 40°39' W 074°10'0 0.0
2014-Oct-22 07:34N 40°39' W 074°10'3 3.2
2014-Oct-22 06:33N 40°39' W 074°06'8 7.9
2014-Oct-22 05:33N 40°44' W 073°58'  

Dump ship's entire track history